createdAt,value
2019-01-05T00:00:23.037Z,0.00
2019-01-05T00:01:23.022Z,0.00
2019-01-05T00:02:23.338Z,0.00
2019-01-05T00:03:22.981Z,0.00
2019-01-05T07:41:51.860Z,48.00
2019-01-05T07:42:51.845Z,52.00
2019-01-05T07:43:51.815Z,56.00
2019-01-05T07:44:51.806Z,56.00
2019-01-05T07:45:51.794Z,72.00
2019-01-05T07:46:51.785Z,76.00
2019-01-05T07:47:51.802Z,76.00
2019-01-05T07:48:51.765Z,80.00
2019-01-05T07:49:51.755Z,76.00
2019-01-05T07:50:51.749Z,84.00
2019-01-05T07:51:51.736Z,96.00
2019-01-05T07:52:51.740Z,116.00
2019-01-05T07:53:51.715Z,108.00
2019-01-05T07:54:51.724Z,124.00
2019-01-05T07:55:51.694Z,104.00
2019-01-05T07:56:51.682Z,116.00
2019-01-05T07:57:51.705Z,136.00
2019-01-05T07:58:51.674Z,148.00
2019-01-05T07:59:51.649Z,132.00
2019-01-05T08:00:52.300Z,136.00
2019-01-05T08:01:51.632Z,140.00
2019-01-05T08:02:51.623Z,152.00
2019-01-05T08:03:51.633Z,116.00
2019-01-05T08:04:51.614Z,116.00
2019-01-05T08:05:51.590Z,128.00
2019-01-05T08:06:51.579Z,144.00
2019-01-05T08:07:51.569Z,144.00
2019-01-05T08:08:51.577Z,136.00
2019-01-05T08:09:51.547Z,164.00
2019-01-05T08:10:51.552Z,140.00
2019-01-05T08:11:51.526Z,156.00
2019-01-05T08:12:51.521Z,176.00
2019-01-05T08:13:51.523Z,196.00
2019-01-05T08:14:51.495Z,232.00
2019-01-05T08:15:51.492Z,252.00
2019-01-05T08:16:51.477Z,240.00
2019-01-05T08:17:51.467Z,212.00
2019-01-05T08:18:51.490Z,268.00
2019-01-05T08:19:51.445Z,284.00
2019-01-05T08:20:51.434Z,236.00
2019-01-05T08:21:51.425Z,260.00
2019-01-05T08:22:51.413Z,260.00
2019-01-05T08:23:51.443Z,268.00
2019-01-05T08:24:51.407Z,316.00
2019-01-05T08:25:51.382Z,248.00
2019-01-05T08:26:51.372Z,276.00
2019-01-05T08:27:51.365Z,244.00
2019-01-05T08:28:51.352Z,280.00
2019-01-05T08:29:51.363Z,292.00
2019-01-05T08:30:51.331Z,304.00
2019-01-05T08:31:51.322Z,316.00
2019-01-05T08:32:51.312Z,264.00
2019-01-05T08:33:51.310Z,328.00
2019-01-05T08:34:51.312Z,292.00
2019-01-05T08:35:51.293Z,300.00
2019-01-05T08:36:51.275Z,300.00
2019-01-05T08:37:51.262Z,272.00
2019-01-05T08:38:51.249Z,328.00
2019-01-05T08:39:51.261Z,296.00
2019-01-05T08:41:00.027Z,332.00
2019-01-05T08:41:51.217Z,316.00
2019-01-05T08:42:51.209Z,296.00
2019-01-05T08:43:51.195Z,328.00
2019-01-05T08:44:51.204Z,404.00
2019-01-05T08:45:51.184Z,436.00
2019-01-05T08:46:51.167Z,328.00
2019-01-05T08:47:51.156Z,360.00
2019-01-05T08:48:51.157Z,352.00
2019-01-05T08:49:51.515Z,420.00
2019-01-05T08:50:51.126Z,432.00
2019-01-05T08:51:51.119Z,464.00
2019-01-05T08:52:51.104Z,408.00
2019-01-05T08:53:51.103Z,380.00
2019-01-05T08:54:51.109Z,356.00
2019-01-05T08:55:56.107Z,380.00
2019-01-05T08:56:52.064Z,336.00
2019-01-05T08:57:51.053Z,312.00
2019-01-05T08:58:51.044Z,364.00
2019-01-05T08:59:51.087Z,280.00
2019-01-05T09:00:51.025Z,328.00
2019-01-05T09:01:51.043Z,344.00
2019-01-05T09:02:51.003Z,332.00
2019-01-05T09:03:51.003Z,268.00
2019-01-05T09:04:51.082Z,400.00
2019-01-05T09:05:51.040Z,336.00
2019-01-05T09:06:51.557Z,316.00
2019-01-05T09:07:50.985Z,456.00
2019-01-05T09:08:50.971Z,440.00
2019-01-05T09:09:50.932Z,492.00
2019-01-05T09:10:50.944Z,500.00
2019-01-05T09:11:50.905Z,552.00
2019-01-05T09:12:50.896Z,604.00
2019-01-05T09:13:50.901Z,616.00
2019-01-05T09:14:50.891Z,600.00
2019-01-05T09:15:50.883Z,588.00
2019-01-05T09:16:50.852Z,540.00
2019-01-05T09:17:50.842Z,500.00
2019-01-05T09:18:50.831Z,504.00
2019-01-05T09:19:50.823Z,360.00
2019-01-05T09:20:50.855Z,432.00
2019-01-05T09:21:50.801Z,448.00
2019-01-05T09:22:50.796Z,412.00
2019-01-05T09:23:50.779Z,408.00
2019-01-05T09:24:50.768Z,448.00
2019-01-05T09:25:50.775Z,512.00
2019-01-05T09:26:50.749Z,512.00
2019-01-05T09:27:50.735Z,624.00
2019-01-05T09:28:50.724Z,620.00
2019-01-05T09:29:50.726Z,488.00
2019-01-05T09:30:50.733Z,732.00
2019-01-05T09:31:50.699Z,660.00
2019-01-05T09:32:50.680Z,720.00
2019-01-05T09:33:50.691Z,628.00
2019-01-05T09:34:50.660Z,504.00
2019-01-05T09:35:50.671Z,688.00
2019-01-05T09:36:50.654Z,580.00
2019-01-05T09:37:50.649Z,648.00
2019-01-05T09:38:50.623Z,648.00
2019-01-05T09:39:50.610Z,828.00
2019-01-05T09:40:50.764Z,736.00
2019-01-05T09:41:50.591Z,892.00
2019-01-05T09:42:50.580Z,668.00
2019-01-05T09:43:50.576Z,600.00
2019-01-05T09:44:50.556Z,652.00
2019-01-05T09:45:50.552Z,636.00
2019-01-05T09:46:50.568Z,676.00
2019-01-05T09:47:50.527Z,708.00
2019-01-05T09:48:50.516Z,640.00
2019-01-05T09:49:50.524Z,548.00
2019-01-05T09:50:50.494Z,652.00
2019-01-05T09:51:50.527Z,712.00
2019-01-05T09:52:50.472Z,836.00
2019-01-05T09:53:50.468Z,888.00
2019-01-05T09:54:50.452Z,652.00
2019-01-05T09:55:50.466Z,764.00
2019-01-05T09:56:50.455Z,660.00
2019-01-05T09:57:50.419Z,720.00
2019-01-05T09:58:50.408Z,888.00
2019-01-05T09:59:50.397Z,924.00
2019-01-05T10:00:50.398Z,880.00
2019-01-05T10:01:50.398Z,860.00
2019-01-05T10:02:50.365Z,692.00
2019-01-05T10:03:50.359Z,828.00
2019-01-05T10:04:50.408Z,964.00
2019-01-05T10:05:50.336Z,1112.00
2019-01-05T10:06:50.359Z,1588.00
2019-01-05T10:07:50.323Z,1664.00
2019-01-05T10:08:50.309Z,1680.00
2019-01-05T10:09:50.294Z,1212.00
2019-01-05T10:10:50.297Z,1628.00
2019-01-05T10:11:50.309Z,1652.00
2019-01-05T10:12:50.258Z,1120.00
2019-01-05T10:13:50.259Z,1192.00
2019-01-05T10:14:50.290Z,1184.00
2019-01-05T10:15:50.229Z,1412.00
2019-01-05T10:16:50.216Z,1400.00
2019-01-05T10:17:50.247Z,1296.00
2019-01-05T10:18:50.199Z,1352.00
2019-01-05T10:19:50.186Z,1212.00
2019-01-05T10:20:50.187Z,1200.00
2019-01-05T10:21:50.169Z,952.00
2019-01-05T10:22:50.180Z,964.00
2019-01-05T10:23:50.142Z,1036.00
2019-01-05T10:24:50.131Z,1112.00
2019-01-05T10:25:50.142Z,1144.00
2019-01-05T10:26:50.115Z,1816.00
2019-01-05T10:27:50.120Z,2064.00
2019-01-05T10:28:50.090Z,2036.00
2019-01-05T10:29:50.089Z,1796.00
2019-01-05T10:30:50.068Z,1512.00
2019-01-05T10:31:50.059Z,1136.00
2019-01-05T10:32:50.085Z,1368.00
2019-01-05T10:33:50.039Z,1360.00
2019-01-05T10:34:50.046Z,1392.00
2019-01-05T10:35:50.023Z,1468.00
2019-01-05T10:36:50.009Z,1756.00
2019-01-05T10:37:50.032Z,1896.00
2019-01-05T10:38:49.986Z,1376.00
2019-01-05T10:39:49.983Z,1392.00
2019-01-05T10:40:49.989Z,1380.00
2019-01-05T10:41:49.963Z,836.00
2019-01-05T10:42:49.966Z,760.00
2019-01-05T10:43:49.950Z,1176.00
2019-01-05T10:44:49.922Z,1056.00
2019-01-05T10:45:49.911Z,928.00
2019-01-05T10:46:49.899Z,884.00
2019-01-05T10:47:49.911Z,896.00
2019-01-05T10:48:49.882Z,984.00
2019-01-05T10:49:49.871Z,1204.00
2019-01-05T10:50:49.873Z,996.00
2019-01-05T10:51:49.845Z,1160.00
2019-01-05T10:52:49.856Z,1060.00
2019-01-05T10:53:49.827Z,1028.00
2019-01-05T10:54:49.821Z,912.00
2019-01-05T10:55:49.807Z,928.00
2019-01-05T10:56:49.795Z,792.00
2019-01-05T10:57:49.815Z,1028.00
2019-01-05T10:58:49.782Z,1032.00
2019-01-05T10:59:49.762Z,1176.00
2019-01-05T11:00:49.777Z,1172.00
2019-01-05T11:01:49.747Z,1128.00
2019-01-05T11:02:49.750Z,972.00
2019-01-05T11:03:49.718Z,1044.00
2019-01-05T11:04:49.714Z,1080.00
2019-01-05T11:05:49.696Z,1060.00
2019-01-05T11:06:49.697Z,912.00
2019-01-05T11:07:49.682Z,1000.00
2019-01-05T11:08:49.682Z,824.00
2019-01-05T11:09:49.675Z,996.00
2019-01-05T11:10:49.648Z,1164.00
2019-01-05T11:11:49.631Z,1084.00
2019-01-05T11:12:49.632Z,1164.00
2019-01-05T11:13:49.677Z,1076.00
2019-01-05T11:14:49.606Z,1020.00
2019-01-05T11:15:49.593Z,1140.00
2019-01-05T11:16:49.581Z,1040.00
2019-01-05T11:17:49.571Z,904.00
2019-01-05T11:18:49.579Z,856.00
2019-01-05T11:19:49.570Z,912.00
2019-01-05T11:20:49.540Z,952.00
2019-01-05T11:21:49.531Z,768.00
2019-01-05T11:22:49.516Z,896.00
2019-01-05T11:23:49.529Z,876.00
2019-01-05T11:24:49.498Z,1020.00
2019-01-05T11:25:49.488Z,1088.00
2019-01-05T11:26:49.483Z,1068.00
2019-01-05T11:27:49.470Z,1152.00
2019-01-05T11:28:49.482Z,1216.00
2019-01-05T11:29:49.449Z,1292.00
2019-01-05T11:30:49.434Z,1116.00
2019-01-05T11:31:49.435Z,1076.00
2019-01-05T11:32:49.420Z,1108.00
2019-01-05T11:33:49.459Z,1244.00
2019-01-05T11:34:49.385Z,1572.00
2019-01-05T11:35:49.378Z,1568.00
2019-01-05T11:36:49.378Z,1476.00
2019-01-05T11:37:49.357Z,1640.00
2019-01-05T11:38:49.350Z,1512.00
2019-01-05T11:39:49.362Z,1288.00
2019-01-05T11:40:49.336Z,1236.00
2019-01-05T11:41:49.311Z,1212.00
2019-01-05T11:42:49.307Z,1260.00
2019-01-05T11:43:49.305Z,1004.00
2019-01-05T11:44:49.303Z,968.00
2019-01-05T11:45:49.274Z,1212.00
2019-01-05T11:46:49.265Z,1060.00
2019-01-05T11:47:49.256Z,1248.00
2019-01-05T11:48:49.238Z,1176.00
2019-01-05T11:49:49.260Z,1172.00
2019-01-05T11:50:49.215Z,1036.00
2019-01-05T11:51:49.210Z,1208.00
2019-01-05T11:52:49.193Z,960.00
2019-01-05T11:53:49.191Z,1056.00
2019-01-05T11:54:49.204Z,1176.00
2019-01-05T11:55:49.172Z,996.00
2019-01-05T11:56:49.157Z,1064.00
2019-01-05T11:57:49.140Z,908.00
2019-01-05T11:58:49.130Z,808.00
2019-01-05T11:59:49.232Z,764.00
2019-01-05T12:00:49.111Z,856.00
2019-01-05T12:01:49.096Z,1196.00
2019-01-05T12:02:49.106Z,1056.00
2019-01-05T12:03:49.081Z,848.00
2019-01-05T12:04:49.068Z,880.00
2019-01-05T12:05:49.076Z,928.00
2019-01-05T12:06:49.060Z,856.00
2019-01-05T12:07:49.059Z,1136.00
2019-01-05T12:08:49.033Z,952.00
2019-01-05T12:09:49.016Z,1188.00
2019-01-05T12:10:49.028Z,880.00
2019-01-05T12:11:48.986Z,956.00
2019-01-05T12:12:48.988Z,1120.00
2019-01-05T12:13:48.981Z,1200.00
2019-01-05T12:14:48.975Z,1380.00
2019-01-05T12:15:48.988Z,1160.00
2019-01-05T12:16:48.931Z,1228.00
2019-01-05T12:17:48.921Z,1256.00
2019-01-05T12:18:48.920Z,1144.00
2019-01-05T12:19:48.915Z,1276.00
2019-01-05T12:20:48.911Z,1188.00
2019-01-05T12:21:48.881Z,1028.00
2019-01-05T12:22:48.867Z,1128.00
2019-01-05T12:23:48.981Z,940.00
2019-01-05T12:24:48.852Z,1196.00
2019-01-05T12:25:48.866Z,940.00
2019-01-05T12:26:48.828Z,888.00
2019-01-05T12:27:48.811Z,1232.00
2019-01-05T12:28:48.804Z,1120.00
2019-01-05T12:29:48.812Z,1128.00
2019-01-05T12:30:48.786Z,1024.00
2019-01-05T12:31:48.793Z,1096.00
2019-01-05T12:32:48.777Z,1056.00
2019-01-05T12:33:48.751Z,956.00
2019-01-05T12:34:48.740Z,1140.00
2019-01-05T12:35:48.767Z,1244.00
2019-01-05T12:36:48.738Z,1128.00
2019-01-05T12:37:48.735Z,1004.00
2019-01-05T12:38:48.708Z,852.00
2019-01-05T12:39:48.687Z,712.00
2019-01-05T12:40:48.676Z,780.00
2019-01-05T12:41:48.687Z,848.00
2019-01-05T12:42:48.657Z,744.00
2019-01-05T12:43:48.657Z,668.00
2019-01-05T12:44:48.634Z,696.00
2019-01-05T12:45:48.621Z,872.00
2019-01-05T12:46:48.639Z,716.00
2019-01-05T12:47:48.599Z,860.00
2019-01-05T12:48:48.592Z,692.00
2019-01-05T12:49:48.617Z,824.00
2019-01-05T12:50:48.572Z,752.00
2019-01-05T12:51:48.578Z,848.00
2019-01-05T12:52:48.544Z,692.00
2019-01-05T12:53:48.546Z,588.00
2019-01-05T12:54:48.527Z,704.00
2019-01-05T12:55:48.525Z,612.00
2019-01-05T12:56:48.526Z,664.00
2019-01-05T12:57:48.498Z,608.00
2019-01-05T12:58:48.488Z,668.00
2019-01-05T12:59:48.479Z,720.00
2019-01-05T13:00:48.464Z,756.00
2019-01-05T13:01:48.467Z,808.00
2019-01-05T13:02:48.440Z,972.00
2019-01-05T13:03:48.430Z,1064.00
2019-01-05T13:04:48.416Z,1260.00
2019-01-05T13:05:48.416Z,1152.00
2019-01-05T13:06:48.413Z,1220.00
2019-01-05T13:07:48.384Z,1388.00
2019-01-05T13:08:48.373Z,1164.00
2019-01-05T13:09:48.362Z,920.00
2019-01-05T13:10:48.358Z,960.00
2019-01-05T13:11:48.394Z,856.00
2019-01-05T13:12:48.338Z,716.00
2019-01-05T13:13:48.319Z,612.00
2019-01-05T13:14:48.324Z,804.00
2019-01-05T13:15:48.299Z,1100.00
2019-01-05T13:16:54.257Z,720.00
2019-01-05T13:17:49.298Z,932.00
2019-01-05T13:18:48.276Z,956.00
2019-01-05T13:19:48.254Z,900.00
2019-01-05T13:20:48.243Z,776.00
2019-01-05T13:21:48.241Z,604.00
2019-01-05T13:22:48.246Z,604.00
2019-01-05T13:23:48.216Z,560.00
2019-01-05T13:24:48.218Z,532.00
2019-01-05T13:25:48.192Z,588.00
2019-01-05T13:26:48.188Z,632.00
2019-01-05T13:27:48.192Z,572.00
2019-01-05T13:28:48.175Z,664.00
2019-01-05T13:29:48.168Z,724.00
2019-01-05T13:30:48.143Z,636.00
2019-01-05T13:31:48.126Z,640.00
2019-01-05T13:32:48.132Z,688.00
2019-01-05T13:33:48.104Z,600.00
2019-01-05T13:34:48.098Z,544.00
2019-01-05T13:35:48.089Z,468.00
2019-01-05T13:36:48.075Z,456.00
2019-01-05T13:37:48.082Z,412.00
2019-01-05T13:38:48.050Z,528.00
2019-01-05T13:39:48.039Z,516.00
2019-01-05T13:40:48.031Z,532.00
2019-01-05T13:41:48.041Z,580.00
2019-01-05T13:42:48.122Z,604.00
2019-01-05T13:43:47.996Z,768.00
2019-01-05T13:44:47.989Z,720.00
2019-01-05T13:45:47.976Z,692.00
2019-01-05T13:46:47.964Z,676.00
2019-01-05T13:47:47.966Z,680.00
2019-01-05T13:48:47.963Z,880.00
2019-01-05T13:49:47.933Z,844.00
2019-01-05T13:50:47.924Z,772.00
2019-01-05T13:51:47.915Z,808.00
2019-01-05T13:52:47.902Z,952.00
2019-01-05T13:53:47.925Z,644.00
2019-01-05T13:54:47.881Z,788.00
2019-01-05T13:55:47.868Z,828.00
2019-01-05T13:56:47.861Z,1044.00
2019-01-05T13:57:47.852Z,860.00
2019-01-05T13:58:47.858Z,704.00
2019-01-05T13:59:47.830Z,756.00
2019-01-05T14:00:47.825Z,804.00
2019-01-05T14:01:47.814Z,640.00
2019-01-05T14:02:47.815Z,740.00
2019-01-05T14:03:47.812Z,620.00
2019-01-05T14:04:47.774Z,636.00
2019-01-05T14:05:47.767Z,672.00
2019-01-05T14:06:47.753Z,712.00
2019-01-05T14:07:47.748Z,788.00
2019-01-05T14:08:47.760Z,760.00
2019-01-05T14:09:47.738Z,800.00
2019-01-05T14:10:47.717Z,744.00
2019-01-05T14:11:47.700Z,688.00
2019-01-05T14:12:47.693Z,724.00
2019-01-05T14:13:47.699Z,624.00
2019-01-05T14:14:47.674Z,716.00
2019-01-05T14:15:47.659Z,704.00
2019-01-05T14:16:47.654Z,584.00
2019-01-05T14:17:47.641Z,600.00
2019-01-05T14:18:47.680Z,640.00
2019-01-05T14:19:47.628Z,636.00
2019-01-05T14:20:47.624Z,484.00
2019-01-05T14:21:47.596Z,476.00
2019-01-05T14:22:47.591Z,396.00
2019-01-05T14:23:47.576Z,376.00
2019-01-05T14:24:47.594Z,448.00
2019-01-05T14:25:47.555Z,448.00
2019-01-05T14:26:47.568Z,484.00
2019-01-05T14:27:47.534Z,468.00
2019-01-05T14:28:47.525Z,424.00
2019-01-05T14:29:47.534Z,448.00
2019-01-05T14:30:47.510Z,348.00
2019-01-05T14:31:47.499Z,396.00
2019-01-05T14:32:47.482Z,432.00
2019-01-05T14:33:47.471Z,440.00
2019-01-05T14:34:47.480Z,480.00
2019-01-05T14:35:54.494Z,428.00
2019-01-05T14:36:47.439Z,348.00
2019-01-05T14:37:47.428Z,412.00
2019-01-05T14:38:47.424Z,440.00
2019-01-05T14:39:47.428Z,340.00
2019-01-05T14:40:47.399Z,284.00
2019-01-05T14:41:47.388Z,376.00
2019-01-05T14:42:47.389Z,352.00
2019-01-05T14:43:47.368Z,248.00
2019-01-05T14:44:47.551Z,324.00
2019-01-05T14:45:47.351Z,280.00
2019-01-05T14:46:47.336Z,292.00
2019-01-05T14:47:47.334Z,276.00
2019-01-05T14:48:47.320Z,260.00
2019-01-05T14:49:47.309Z,300.00
2019-01-05T14:50:47.341Z,236.00
2019-01-05T14:51:47.285Z,268.00
2019-01-05T14:52:47.275Z,340.00
2019-01-05T14:53:48.795Z,336.00
2019-01-05T14:54:47.260Z,340.00
2019-01-05T14:55:47.268Z,308.00
2019-01-05T14:56:47.249Z,292.00
2019-01-05T14:57:47.222Z,260.00
2019-01-05T14:58:47.213Z,244.00
2019-01-05T14:59:47.204Z,216.00
2019-01-05T15:00:47.211Z,216.00
2019-01-05T15:01:47.183Z,180.00
2019-01-05T15:02:47.177Z,156.00
2019-01-05T15:03:47.159Z,148.00
2019-01-05T15:04:47.150Z,156.00
2019-01-05T15:05:47.157Z,156.00
2019-01-05T15:06:47.127Z,132.00
2019-01-05T15:07:47.129Z,132.00
2019-01-05T15:08:47.116Z,116.00
2019-01-05T15:09:47.104Z,124.00
2019-01-05T15:10:47.113Z,128.00
2019-01-05T15:11:47.075Z,112.00
2019-01-05T15:12:47.066Z,100.00
2019-01-05T15:13:47.057Z,84.00
2019-01-05T15:14:47.060Z,80.00
2019-01-05T15:15:47.065Z,68.00
2019-01-05T15:16:47.026Z,88.00
2019-01-05T15:17:47.015Z,72.00
2019-01-05T15:18:47.003Z,76.00
2019-01-05T15:19:46.996Z,64.00
2019-01-05T15:20:46.990Z,64.00
2019-01-05T15:21:46.999Z,56.00
2019-01-05T15:22:48.547Z,56.00
2019-01-05T15:23:46.956Z,48.00
2019-01-05T15:24:46.942Z,48.00
2019-01-05T15:25:46.939Z,44.00
2019-01-05T15:26:46.949Z,40.00
2019-01-05T15:27:46.917Z,40.00
2019-01-05T15:28:46.901Z,40.00
2019-01-05T15:29:46.898Z,44.00
2019-01-05T15:30:46.880Z,40.00
2019-01-05T15:31:46.897Z,48.00
2019-01-05T15:32:46.873Z,40.00
2019-01-05T15:33:46.855Z,44.00
2019-01-05T15:34:46.839Z,36.00
2019-01-05T15:35:46.831Z,32.00
2019-01-05T15:36:46.837Z,32.00
2019-01-05T15:37:46.814Z,28.00
2019-01-05T15:38:46.805Z,24.00
2019-01-05T15:39:46.815Z,20.00
2019-01-05T15:40:46.779Z,16.00
2019-01-05T15:41:46.842Z,12.00
2019-01-05T15:42:46.758Z,12.00
2019-01-05T15:43:46.754Z,8.00
2019-01-05T15:44:46.735Z,8.00
2019-01-05T15:45:46.729Z,12.00
2019-01-05T15:46:46.771Z,12.00
2019-01-05T15:47:46.703Z,8.00
2019-01-05T15:48:46.691Z,12.00
2019-01-05T15:49:46.684Z,8.00
2019-01-05T15:50:46.672Z,8.00
2019-01-05T15:51:46.667Z,8.00
2019-01-05T15:52:46.673Z,8.00
2019-01-05T15:53:46.641Z,8.00
2019-01-05T15:54:46.632Z,8.00
2019-01-05T15:55:46.627Z,4.00
2019-01-05T15:56:46.611Z,4.00
2019-01-05T15:57:46.622Z,4.00
2019-01-05T15:58:46.593Z,4.00
2019-01-05T15:59:46.580Z,4.00
2019-01-05T16:00:46.569Z,4.00
2019-01-05T16:01:46.574Z,4.00
2019-01-05T16:02:46.579Z,4.00
2019-01-05T16:03:46.540Z,4.00
2019-01-05T16:04:46.535Z,4.00
2019-01-05T16:05:46.521Z,4.00
2019-01-05T16:06:46.507Z,0.00
2019-01-05T16:07:46.514Z,0.00
2019-01-05T16:08:46.490Z,4.00
2019-01-05T16:09:46.486Z,4.00
2019-01-05T16:10:46.468Z,0.00
2019-01-05T16:11:46.477Z,0.00
2019-01-05T16:12:46.485Z,0.00
2019-01-05T16:13:46.441Z,0.00
2019-01-05T16:14:46.428Z,0.00
2019-01-05T16:15:46.427Z,0.00
2019-01-05T16:16:46.406Z,0.00
2019-01-05T16:17:46.393Z,0.00
2019-01-05T16:18:46.416Z,0.00
2019-01-05T16:19:46.422Z,0.00
2019-01-05T16:20:46.367Z,0.00
2019-01-05T16:21:46.352Z,0.00
2019-01-05T16:22:46.343Z,0.00
2019-01-05T16:23:46.356Z,0.00
2019-01-05T16:24:46.339Z,0.00
2019-01-05T16:25:46.311Z,0.00
2019-01-05T16:26:46.302Z,0.00
2019-01-05T16:27:46.293Z,0.00
2019-01-05T16:28:46.299Z,0.00
2019-01-05T16:29:46.273Z,0.00
2019-01-05T16:30:46.270Z,0.00
2019-01-05T16:31:46.250Z,0.00
2019-01-05T16:32:46.240Z,0.00
2019-01-05T16:33:46.247Z,0.00
2019-01-05T16:34:46.221Z,0.00
2019-01-05T16:35:46.213Z,0.00
2019-01-05T16:36:46.203Z,0.00
2019-01-05T16:37:46.190Z,0.00
2019-01-05T16:38:46.195Z,0.00
2019-01-05T16:39:46.167Z,0.00
2019-01-05T16:40:46.156Z,0.00
2019-01-05T16:41:46.149Z,0.00
2019-01-05T16:42:46.142Z,0.00
2019-01-05T16:43:46.151Z,0.00
2019-01-05T16:44:46.115Z,0.00
2019-01-05T16:45:46.103Z,0.00
2019-01-05T16:46:46.094Z,0.00
2019-01-05T16:47:46.091Z,0.00
2019-01-05T16:48:46.097Z,0.00
2019-01-05T16:49:46.072Z,0.00
2019-01-05T16:50:46.052Z,0.00
2019-01-05T16:51:46.043Z,0.00
2019-01-05T16:52:46.032Z,0.00
2019-01-05T16:53:46.023Z,0.00
2019-01-05T16:54:46.030Z,0.00
2019-01-05T16:55:46.004Z,0.00
2019-01-05T16:56:45.993Z,0.00
2019-01-05T16:57:45.977Z,0.00
2019-01-05T16:58:45.966Z,0.00
2019-01-05T16:59:45.982Z,0.00
2019-01-05T17:00:45.949Z,0.00
2019-01-05T17:01:45.937Z,0.00
2019-01-05T17:02:45.926Z,0.00
2019-01-05T17:03:45.925Z,0.00
2019-01-05T17:04:45.932Z,0.00
2019-01-05T17:05:45.901Z,0.00
2019-01-05T17:06:45.888Z,0.00
2019-01-05T17:07:45.882Z,0.00
2019-01-05T17:08:45.872Z,0.00
2019-01-05T17:09:45.881Z,0.00
2019-01-05T17:10:45.844Z,0.00
2019-01-05T17:11:45.837Z,0.00
2019-01-05T17:12:45.837Z,0.00
2019-01-05T17:13:45.813Z,0.00
2019-01-05T17:14:45.829Z,0.00
2019-01-05T17:15:45.793Z,0.00
2019-01-05T17:16:45.784Z,0.00
2019-01-05T17:17:45.770Z,0.00
2019-01-05T17:18:45.758Z,0.00
2019-01-05T17:19:45.792Z,0.00
2019-01-05T17:20:45.739Z,0.00
2019-01-05T17:21:45.727Z,0.00
2019-01-05T17:22:45.728Z,0.00
2019-01-05T17:23:45.726Z,0.00
2019-01-05T17:24:45.728Z,0.00
2019-01-05T17:25:45.695Z,0.00
2019-01-05T17:26:45.673Z,0.00
2019-01-05T17:27:45.664Z,0.00
2019-01-05T17:28:45.665Z,0.00
2019-01-05T17:29:45.951Z,0.00
2019-01-05T17:30:45.641Z,0.00
2019-01-05T17:31:45.647Z,0.00
2019-01-05T17:32:45.651Z,0.00
2019-01-05T17:33:45.620Z,0.00
2019-01-05T17:34:45.591Z,0.00
2019-01-05T17:35:45.634Z,0.00
2019-01-05T17:36:45.584Z,0.00
2019-01-05T17:37:45.564Z,0.00
2019-01-05T17:38:45.567Z,0.00
2019-01-05T17:39:45.539Z,0.00
2019-01-05T17:40:45.551Z,0.00
2019-01-05T17:41:45.537Z,0.00
2019-01-05T17:42:45.530Z,0.00
2019-01-05T17:43:45.500Z,0.00
2019-01-05T17:44:45.490Z,0.00
2019-01-05T17:45:45.501Z,0.00
2019-01-05T17:46:45.486Z,0.00
2019-01-05T17:47:45.478Z,0.00
2019-01-05T17:48:45.452Z,0.00
2019-01-05T17:49:45.437Z,0.00
2019-01-05T17:50:45.444Z,0.00
2019-01-05T17:51:47.431Z,0.00
2019-01-05T17:52:45.422Z,0.00
2019-01-05T17:53:45.419Z,0.00
2019-01-05T17:54:45.385Z,0.00
2019-01-05T17:55:45.395Z,0.00
2019-01-05T17:56:45.418Z,0.00
2019-01-05T17:57:45.376Z,0.00
2019-01-05T17:58:45.363Z,0.00
2019-01-05T17:59:45.382Z,0.00
2019-01-05T18:00:45.405Z,0.00
2019-01-05T18:01:45.313Z,0.00
2019-01-05T18:02:45.367Z,0.00
2019-01-05T18:03:45.312Z,0.00
2019-01-05T18:04:45.349Z,0.00
2019-01-05T18:05:45.271Z,0.00
2019-01-05T18:06:45.393Z,0.00
2019-01-05T18:07:45.261Z,0.00
2019-01-05T18:08:45.350Z,0.00
2019-01-05T18:09:45.230Z,0.00
2019-01-05T18:10:45.242Z,0.00
2019-01-05T18:11:45.304Z,0.00
2019-01-05T18:12:45.200Z,0.00
2019-01-05T18:13:45.230Z,0.00
2019-01-05T18:14:45.181Z,0.00
2019-01-05T18:15:45.200Z,0.00
2019-01-05T18:16:45.198Z,0.00
2019-01-05T18:17:45.146Z,0.00
2019-01-05T18:18:45.141Z,0.00
2019-01-05T18:19:45.138Z,0.00
2019-01-05T18:20:45.136Z,0.00
2019-01-05T18:21:45.156Z,0.00
2019-01-05T18:22:53.176Z,0.00
2019-01-05T18:23:45.094Z,0.00
2019-01-05T18:24:45.074Z,0.00
2019-01-05T18:25:45.074Z,0.00
2019-01-05T18:26:45.079Z,0.00
2019-01-05T18:27:45.057Z,0.00
2019-01-05T18:28:45.059Z,0.00
2019-01-05T18:29:45.048Z,0.00
2019-01-05T18:30:45.078Z,0.00
2019-01-05T18:31:45.073Z,0.00
2019-01-05T18:32:45.006Z,0.00
2019-01-05T18:33:44.999Z,0.00
2019-01-05T18:34:44.988Z,0.00
2019-01-05T18:35:44.973Z,0.00
2019-01-05T18:36:44.961Z,0.00
2019-01-05T18:37:44.969Z,0.00
2019-01-05T18:38:45.005Z,0.00
2019-01-05T18:39:44.923Z,0.00
2019-01-05T18:40:44.914Z,0.00
2019-01-05T18:41:44.897Z,0.00
2019-01-05T18:42:44.922Z,0.00
2019-01-05T18:43:44.877Z,0.00
2019-01-05T18:44:44.915Z,0.00
2019-01-05T18:45:44.866Z,0.00
2019-01-05T18:46:44.850Z,0.00
2019-01-05T18:47:44.886Z,0.00
2019-01-05T18:48:44.859Z,0.00
2019-01-05T18:49:44.848Z,0.00
2019-01-05T18:50:44.816Z,0.00
2019-01-05T18:51:44.888Z,0.00
2019-01-05T18:52:44.801Z,0.00
2019-01-05T18:53:44.778Z,0.00
2019-01-05T18:54:44.780Z,0.00
2019-01-05T18:55:44.775Z,0.00
2019-01-05T18:56:44.754Z,0.00
2019-01-05T18:57:44.763Z,0.00
2019-01-05T18:58:44.793Z,0.00
2019-01-05T18:59:44.717Z,0.00
2019-01-05T19:00:44.783Z,0.00
2019-01-05T19:01:44.724Z,0.00
2019-01-05T19:02:44.720Z,0.00
2019-01-05T19:03:44.675Z,0.00
2019-01-05T19:04:44.688Z,0.00
2019-01-05T19:05:44.751Z,0.00
2019-01-05T19:06:44.648Z,0.00
2019-01-05T19:07:44.718Z,0.00
2019-01-05T19:08:44.653Z,0.00
2019-01-05T19:09:44.648Z,0.00
2019-01-05T19:10:44.605Z,0.00
2019-01-05T19:11:44.603Z,0.00
2019-01-05T19:12:44.623Z,0.00
2019-01-05T19:13:44.579Z,0.00
2019-01-05T19:14:44.596Z,0.00
2019-01-05T19:15:44.707Z,0.00
2019-01-05T19:16:44.574Z,0.00
2019-01-05T19:17:44.612Z,0.00
2019-01-05T19:18:44.522Z,0.00
2019-01-05T19:19:44.540Z,0.00
2019-01-05T19:20:45.050Z,0.00
2019-01-05T19:21:44.502Z,0.00
2019-01-05T19:22:44.496Z,0.00
2019-01-05T19:23:44.544Z,0.00
2019-01-05T19:24:44.469Z,0.00
2019-01-05T19:25:44.445Z,0.00
2019-01-05T19:26:44.435Z,0.00
2019-01-05T19:27:44.458Z,0.00
2019-01-05T19:28:44.430Z,0.00
2019-01-05T19:29:44.405Z,0.00
2019-01-05T19:30:44.405Z,0.00
2019-01-05T19:31:44.435Z,0.00
2019-01-05T19:32:44.373Z,0.00
2019-01-05T19:33:44.397Z,0.00
2019-01-05T19:34:44.406Z,0.00
2019-01-05T19:35:44.374Z,0.00
2019-01-05T19:36:44.369Z,0.00
2019-01-05T19:37:44.326Z,0.00
2019-01-05T19:38:48.378Z,0.00
2019-01-05T19:39:44.312Z,0.00
2019-01-05T19:40:44.299Z,0.00
2019-01-05T19:41:44.279Z,0.00
2019-01-05T19:42:44.274Z,0.00
2019-01-05T19:43:44.294Z,0.00
2019-01-05T19:44:44.270Z,0.00
2019-01-05T19:45:44.240Z,0.00
2019-01-05T19:46:44.250Z,0.00
2019-01-05T19:47:44.214Z,0.00
2019-01-05T19:48:44.211Z,0.00
2019-01-05T19:49:44.666Z,0.00
2019-01-05T19:50:44.201Z,0.00
2019-01-05T19:51:44.177Z,0.00
2019-01-05T19:52:44.165Z,0.00
2019-01-05T19:53:44.156Z,0.00
2019-01-05T19:54:44.178Z,0.00
2019-01-05T19:55:44.151Z,0.00
2019-01-05T19:56:44.126Z,0.00
2019-01-05T19:57:44.124Z,0.00
2019-01-05T19:58:44.099Z,0.00
2019-01-05T19:59:44.124Z,0.00
2019-01-05T20:00:44.093Z,0.00
2019-01-05T20:01:44.067Z,0.00
2019-01-05T20:02:44.067Z,0.00
2019-01-05T20:03:44.110Z,0.00
2019-01-05T20:04:44.076Z,0.00
2019-01-05T20:05:44.038Z,0.00
2019-01-05T20:06:44.018Z,0.00
2019-01-05T20:07:44.015Z,0.00
2019-01-05T20:08:44.001Z,0.00
2019-01-05T20:09:44.021Z,0.00
2019-01-05T20:10:44.003Z,0.00
2019-01-05T20:11:43.980Z,0.00
2019-01-05T20:12:43.961Z,0.00
2019-01-05T20:13:43.979Z,0.00
2019-01-05T20:14:43.956Z,0.00
2019-01-05T20:15:43.927Z,0.00
2019-01-05T20:16:43.916Z,0.00
2019-01-05T20:17:43.935Z,0.00
2019-01-05T20:18:43.960Z,0.00
2019-01-05T20:19:45.672Z,0.00
2019-01-05T20:20:43.872Z,0.00